Flushing, Ohio
Current Conditions -  °F | °C
As of 7:53 AM on Sunday 23 Nov 2014 (Local Time) from KHLG Reporting Station
Overcast Overcast  
Wind Chill: 45°   Ceiling: 9500
Heat Index: 49°   Visibility: 10mi
Dew Point: 26°   Wind: 8mph
Humidity: 41%   Direction: 160°SSE
Pressure: 30.07"   Gusts: NA
Location:  40.15°N, 81.07°W
Report Text: KHLG 231253Z AUTO 16007KT 10SM FEW070 OVC095 09/M03 A3007 RMK AO2 SLP188 T00941033
Loading
Personal Weather Stations






























Interactive Weather Map New forecast layout! Learn more

10-Day Weather Forecast

Advertisements
Track Severe Weather on mobile